sensor_id;sensor_type;location;lat;lon;timestamp;pressure;altitude;pressure_sealevel;temperature;humidity
48095;BME280;33874;52.070;-0.516;2023-06-04T00:04:21;102120.27;;;11.08;70.73
48095;BME280;33874;52.070;-0.516;2023-06-04T00:06:53;102120.83;;;11.05;71.05
48095;BME280;33874;52.070;-0.516;2023-06-04T00:09:28;102120.73;;;11.04;71.02
48095;BME280;33874;52.070;-0.516;2023-06-04T00:11:59;102123.15;;;10.99;70.96
48095;BME280;33874;52.070;-0.516;2023-06-04T00:14:27;102128.39;;;10.94;71.10
48095;BME280;33874;52.070;-0.516;2023-06-04T00:17:19;102131.49;;;10.90;71.25
48095;BME280;33874;52.070;-0.516;2023-06-04T00:35:38;102135.55;;;10.65;72.20
48095;BME280;33874;52.070;-0.516;2023-06-04T00:38:07;102133.42;;;10.65;72.28
48095;BME280;33874;52.070;-0.516;2023-06-04T00:40:39;102135.31;;;10.63;72.35
48095;BME280;33874;52.070;-0.516;2023-06-04T00:43:08;102138.11;;;10.63;72.53
48095;BME280;33874;52.070;-0.516;2023-06-04T00:45:58;102135.17;;;10.62;72.60
48095;BME280;33874;52.070;-0.516;2023-06-04T00:48:31;102130.65;;;10.62;72.57
48095;BME280;33874;52.070;-0.516;2023-06-04T00:51:12;102133.31;;;10.62;72.69
48095;BME280;33874;52.070;-0.516;2023-06-04T00:54:15;102132.80;;;10.61;72.68
48095;BME280;33874;52.070;-0.516;2023-06-04T00:57:03;102130.74;;;10.60;72.70
48095;BME280;33874;52.070;-0.516;2023-06-04T01:11:07;102135.36;;;10.59;73.00
48095;BME280;33874;52.070;-0.516;2023-06-04T01:20:05;102139.98;;;10.56;72.82
48095;BME280;33874;52.070;-0.516;2023-06-04T01:22:56;102140.16;;;10.50;72.64
48095;BME280;33874;52.070;-0.516;2023-06-04T01:28:07;102143.08;;;10.43;72.63
48095;BME280;33874;52.070;-0.516;2023-06-04T01:30:36;102140.33;;;10.39;72.71
48095;BME280;33874;52.070;-0.516;2023-06-04T01:33:11;102141.86;;;10.37;72.77
48095;BME280;33874;52.070;-0.516;2023-06-04T01:35:39;102142.95;;;10.36;72.80
48095;BME280;33874;52.070;-0.516;2023-06-04T01:38:07;102139.83;;;10.36;72.83
48095;BME280;33874;52.070;-0.516;2023-06-04T01:40:35;102138.84;;;10.34;72.97
48095;BME280;33874;52.070;-0.516;2023-06-04T01:43:10;102137.30;;;10.31;72.79
48095;BME280;33874;52.070;-0.516;2023-06-04T01:46:39;102133.80;;;10.25;72.93
48095;BME280;33874;52.070;-0.516;2023-06-04T01:49:15;102136.66;;;10.21;73.08
48095;BME280;33874;52.070;-0.516;2023-06-04T01:51:50;102139.49;;;10.18;73.12
48095;BME280;33874;52.070;-0.516;2023-06-04T01:54:18;102135.35;;;10.14;73.17
48095;BME280;33874;52.070;-0.516;2023-06-04T01:56:46;102131.84;;;10.07;73.19
48095;BME280;33874;52.070;-0.516;2023-06-04T01:59:15;102134.02;;;10.03;73.40
48095;BME280;33874;52.070;-0.516;2023-06-04T02:01:47;102130.80;;;9.99;73.43
48095;BME280;33874;52.070;-0.516;2023-06-04T02:04:15;102127.31;;;9.95;73.57
48095;BME280;33874;52.070;-0.516;2023-06-04T02:06:43;102127.89;;;9.92;73.69
48095;BME280;33874;52.070;-0.516;2023-06-04T02:09:11;102130.77;;;9.91;73.85
48095;BME280;33874;52.070;-0.516;2023-06-04T02:11:39;102130.73;;;9.89;73.97
48095;BME280;33874;52.070;-0.516;2023-06-04T02:14:07;102129.27;;;9.86;73.91
48095;BME280;33874;52.070;-0.516;2023-06-04T02:16:36;102129.12;;;9.83;74.04
48095;BME280;33874;52.070;-0.516;2023-06-04T02:19:05;102128.96;;;9.83;74.23
48095;BME280;33874;52.070;-0.516;2023-06-04T02:21:33;102131.31;;;9.82;74.22
48095;BME280;33874;52.070;-0.516;2023-06-04T02:24:01;102130.79;;;9.82;74.26
48095;BME280;33874;52.070;-0.516;2023-06-04T02:26:29;102135.23;;;9.81;74.33
48095;BME280;33874;52.070;-0.516;2023-06-04T02:29:00;102131.00;;;9.78;74.09
48095;BME280;33874;52.070;-0.516;2023-06-04T02:31:30;102129.81;;;9.71;74.02
48095;BME280;33874;52.070;-0.516;2023-06-04T02:33:58;102130.55;;;9.65;74.05
48095;BME280;33874;52.070;-0.516;2023-06-04T02:36:28;102129.91;;;9.55;74.04
48095;BME280;33874;52.070;-0.516;2023-06-04T02:38:56;102132.21;;;9.48;74.19
48095;BME280;33874;52.070;-0.516;2023-06-04T02:41:26;102127.63;;;9.43;74.27
48095;BME280;33874;52.070;-0.516;2023-06-04T02:43:55;102128.71;;;9.39;74.38
48095;BME280;33874;52.070;-0.516;2023-06-04T02:46:23;102131.61;;;9.37;74.56
48095;BME280;33874;52.070;-0.516;2023-06-04T02:49:58;102131.45;;;9.37;74.69
48095;BME280;33874;52.070;-0.516;2023-06-04T03:00:26;102130.25;;;9.30;74.50
48095;BME280;33874;52.070;-0.516;2023-06-04T03:06:51;102133.02;;;9.26;74.59
48095;BME280;33874;52.070;-0.516;2023-06-04T03:09:47;102131.71;;;9.24;74.51
48095;BME280;33874;52.070;-0.516;2023-06-04T03:15:24;102127.48;;;9.15;74.37
48095;BME280;33874;52.070;-0.516;2023-06-04T03:17:56;102127.05;;;9.10;74.53
48095;BME280;33874;52.070;-0.516;2023-06-04T03:20:31;102130.98;;;9.08;74.65
48095;BME280;33874;52.070;-0.516;2023-06-04T03:23:07;102133.05;;;9.06;74.66
48095;BME280;33874;52.070;-0.516;2023-06-04T03:26:02;102131.86;;;9.02;74.46
48095;BME280;33874;52.070;-0.516;2023-06-04T03:28:58;102132.34;;;8.97;74.46
48095;BME280;33874;52.070;-0.516;2023-06-04T03:31:40;102130.66;;;8.93;74.41
48095;BME280;33874;52.070;-0.516;2023-06-04T03:34:08;102128.52;;;8.87;74.43
48095;BME280;33874;52.070;-0.516;2023-06-04T03:36:36;102129.06;;;8.84;74.54
48095;BME280;33874;52.070;-0.516;2023-06-04T03:39:05;102127.17;;;8.80;74.62
48095;BME280;33874;52.070;-0.516;2023-06-04T03:41:33;102128.80;;;8.79;74.83
48095;BME280;33874;52.070;-0.516;2023-06-04T03:44:01;102130.15;;;8.77;74.76
48095;BME280;33874;52.070;-0.516;2023-06-04T03:46:29;102127.30;;;8.78;74.80
48095;BME280;33874;52.070;-0.516;2023-06-04T03:49:02;102127.41;;;8.79;74.98
48095;BME280;33874;52.070;-0.516;2023-06-04T03:51:34;102125.23;;;8.80;74.82
48095;BME280;33874;52.070;-0.516;2023-06-04T03:59:01;102133.27;;;8.97;75.53
48095;BME280;33874;52.070;-0.516;2023-06-04T04:01:29;102133.80;;;9.02;75.33
48095;BME280;33874;52.070;-0.516;2023-06-04T04:03:57;102131.56;;;9.05;75.12
48095;BME280;33874;52.070;-0.516;2023-06-04T04:06:25;102132.20;;;9.09;75.20
48095;BME280;33874;52.070;-0.516;2023-06-04T04:08:53;102133.95;;;9.15;75.17
48095;BME280;33874;52.070;-0.516;2023-06-04T04:11:21;102132.90;;;9.19;74.91
48095;BME280;33874;52.070;-0.516;2023-06-04T04:15:03;102134.27;;;9.19;74.58
48095;BME280;33874;52.070;-0.516;2023-06-04T04:17:48;102129.14;;;9.23;74.70
48095;BME280;33874;52.070;-0.516;2023-06-04T04:20:17;102133.29;;;9.27;74.63
48095;BME280;33874;52.070;-0.516;2023-06-04T04:23:11;102133.20;;;9.31;74.49
48095;BME280;33874;52.070;-0.516;2023-06-04T04:25:39;102137.41;;;9.34;74.21
48095;BME280;33874;52.070;-0.516;2023-06-04T04:28:07;102140.59;;;9.37;73.98
48095;BME280;33874;52.070;-0.516;2023-06-04T04:30:35;102140.45;;;9.40;73.99
48095;BME280;33874;52.070;-0.516;2023-06-04T04:33:04;102138.69;;;9.43;74.02
48095;BME280;33874;52.070;-0.516;2023-06-04T04:35:35;102137.29;;;9.52;74.20
48095;BME280;33874;52.070;-0.516;2023-06-04T04:38:03;102129.05;;;9.57;74.07
48095;BME280;33874;52.070;-0.516;2023-06-04T04:40:31;102129.56;;;9.60;73.93
48095;BME280;33874;52.070;-0.516;2023-06-04T04:42:59;102130.81;;;9.63;73.91
48095;BME280;33874;52.070;-0.516;2023-06-04T04:45:27;102128.30;;;9.67;73.95
48095;BME280;33874;52.070;-0.516;2023-06-04T04:47:55;102124.92;;;9.71;73.80
48095;BME280;33874;52.070;-0.516;2023-06-04T04:50:26;102125.77;;;9.75;73.70
48095;BME280;33874;52.070;-0.516;2023-06-04T04:52:55;102129.95;;;9.81;73.62
48095;BME280;33874;52.070;-0.516;2023-06-04T04:55:23;102134.84;;;9.87;73.82
48095;BME280;33874;52.070;-0.516;2023-06-04T04:57:51;102135.61;;;9.95;73.73
48095;BME280;33874;52.070;-0.516;2023-06-04T05:00:18;102137.94;;;10.00;73.64
48095;BME280;33874;52.070;-0.516;2023-06-04T05:02:47;102133.56;;;10.05;73.58
48095;BME280;33874;52.070;-0.516;2023-06-04T05:05:16;102134.85;;;10.10;73.49
48095;BME280;33874;52.070;-0.516;2023-06-04T05:07:44;102133.67;;;10.15;73.40
48095;BME280;33874;52.070;-0.516;2023-06-04T05:10:12;102130.53;;;10.24;73.30
48095;BME280;33874;52.070;-0.516;2023-06-04T05:12:50;102128.66;;;10.31;73.37
48095;BME280;33874;52.070;-0.516;2023-06-04T05:15:18;102131.38;;;10.39;73.36
48095;BME280;33874;52.070;-0.516;2023-06-04T05:17:59;102133.62;;;10.45;73.09
48095;BME280;33874;52.070;-0.516;2023-06-04T05:20:32;102130.54;;;10.49;73.03
48095;BME280;33874;52.070;-0.516;2023-06-04T05:23:06;102132.54;;;10.54;73.01
48095;BME280;33874;52.070;-0.516;2023-06-04T05:25:37;102132.16;;;10.60;72.90
48095;BME280;33874;52.070;-0.516;2023-06-04T05:28:08;102130.78;;;10.68;72.91
48095;BME280;33874;52.070;-0.516;2023-06-04T05:30:37;102128.54;;;10.75;72.77
48095;BME280;33874;52.070;-0.516;2023-06-04T05:33:23;102126.30;;;10.83;72.69
48095;BME280;33874;52.070;-0.516;2023-06-04T05:35:58;102124.89;;;10.94;72.61
48095;BME280;33874;52.070;-0.516;2023-06-04T05:38:26;102126.18;;;11.15;72.61
48095;BME280;33874;52.070;-0.516;2023-06-04T05:40:54;102119.60;;;11.50;72.46
48095;BME280;33874;52.070;-0.516;2023-06-04T05:43:23;102125.17;;;12.31;71.71
48095;BME280;33874;52.070;-0.516;2023-06-04T05:45:51;102126.75;;;12.68;70.94
48095;BME280;33874;52.070;-0.516;2023-06-04T05:48:31;102130.12;;;12.95;70.20
48095;BME280;33874;52.070;-0.516;2023-06-04T05:50:59;102124.20;;;13.56;69.83
48095;BME280;33874;52.070;-0.516;2023-06-04T05:53:27;102127.46;;;13.96;69.24
48095;BME280;33874;52.070;-0.516;2023-06-04T05:55:55;102131.86;;;14.42;68.88
48095;BME280;33874;52.070;-0.516;2023-06-04T05:58:32;102131.48;;;14.80;67.91
48095;BME280;33874;52.070;-0.516;2023-06-04T06:01:37;102125.73;;;15.90;66.03
48095;BME280;33874;52.070;-0.516;2023-06-04T06:04:14;102125.38;;;16.33;64.52
48095;BME280;33874;52.070;-0.516;2023-06-04T06:06:42;102130.63;;;16.34;63.45
48095;BME280;33874;52.070;-0.516;2023-06-04T06:09:15;102132.70;;;16.14;63.26
48095;BME280;33874;52.070;-0.516;2023-06-04T06:11:43;102136.32;;;16.40;62.55
48095;BME280;33874;52.070;-0.516;2023-06-04T06:14:11;102135.94;;;16.78;61.31
48095;BME280;33874;52.070;-0.516;2023-06-04T06:23:56;102138.27;;;17.19;60.08
48095;BME280;33874;52.070;-0.516;2023-06-04T06:26:34;102138.27;;;17.04;59.53
48095;BME280;33874;52.070;-0.516;2023-06-04T06:29:01;102135.64;;;17.17;59.03
48095;BME280;33874;52.070;-0.516;2023-06-04T06:31:29;102136.59;;;17.14;58.70
48095;BME280;33874;52.070;-0.516;2023-06-04T06:33:58;102134.81;;;17.05;59.03
48095;BME280;33874;52.070;-0.516;2023-06-04T06:36:25;102141.93;;;16.83;59.20
48095;BME280;33874;52.070;-0.516;2023-06-04T06:38:53;102143.57;;;17.16;59.01
48095;BME280;33874;52.070;-0.516;2023-06-04T06:41:21;102144.10;;;17.85;58.10
48095;BME280;33874;52.070;-0.516;2023-06-04T06:43:50;102142.20;;;18.08;57.59
48095;BME280;33874;52.070;-0.516;2023-06-04T06:46:18;102138.39;;;17.91;57.69
48095;BME280;33874;52.070;-0.516;2023-06-04T06:48:46;102139.44;;;18.36;56.97
48095;BME280;33874;52.070;-0.516;2023-06-04T06:51:15;102139.40;;;18.24;56.42
48095;BME280;33874;52.070;-0.516;2023-06-04T06:53:43;102144.77;;;17.84;57.66
48095;BME280;33874;52.070;-0.516;2023-06-04T06:56:14;102143.23;;;17.68;58.24
48095;BME280;33874;52.070;-0.516;2023-06-04T06:58:42;102147.48;;;17.88;58.11
48095;BME280;33874;52.070;-0.516;2023-06-04T07:01:10;102144.60;;;17.88;57.45
48095;BME280;33874;52.070;-0.516;2023-06-04T07:03:39;102146.56;;;17.62;57.22
48095;BME280;33874;52.070;-0.516;2023-06-04T07:06:07;102148.26;;;17.71;57.43
48095;BME280;33874;52.070;-0.516;2023-06-04T07:08:35;102147.92;;;18.05;57.06
48095;BME280;33874;52.070;-0.516;2023-06-04T07:11:03;102152.02;;;18.33;57.05
48095;BME280;33874;52.070;-0.516;2023-06-04T07:13:34;102148.27;;;18.18;57.34
48095;BME280;33874;52.070;-0.516;2023-06-04T07:16:03;102153.45;;;17.90;57.62
48095;BME280;33874;52.070;-0.516;2023-06-04T07:18:31;102154.61;;;18.04;57.74
48095;BME280;33874;52.070;-0.516;2023-06-04T07:21:00;102153.67;;;18.47;57.28
48095;BME280;33874;52.070;-0.516;2023-06-04T07:23:28;102152.16;;;18.50;56.84
48095;BME280;33874;52.070;-0.516;2023-06-04T07:25:56;102154.64;;;18.34;56.62
48095;BME280;33874;52.070;-0.516;2023-06-04T07:28:27;102155.20;;;19.07;55.19
48095;BME280;33874;52.070;-0.516;2023-06-04T07:30:55;102148.73;;;19.80;53.51
48095;BME280;33874;52.070;-0.516;2023-06-04T07:33:26;102149.27;;;20.44;52.29
48095;BME280;33874;52.070;-0.516;2023-06-04T07:35:55;102145.76;;;20.79;52.33
48095;BME280;33874;52.070;-0.516;2023-06-04T07:38:24;102144.58;;;20.52;52.66
48095;BME280;33874;52.070;-0.516;2023-06-04T07:40:52;102145.98;;;20.94;51.66
48095;BME280;33874;52.070;-0.516;2023-06-04T07:43:20;102142.70;;;21.16;51.44
48095;BME280;33874;52.070;-0.516;2023-06-04T07:45:48;102147.91;;;20.87;51.63
48095;BME280;33874;52.070;-0.516;2023-06-04T07:48:16;102146.50;;;20.17;52.34
48095;BME280;33874;52.070;-0.516;2023-06-04T07:50:47;102150.98;;;19.77;53.53
48095;BME280;33874;52.070;-0.516;2023-06-04T07:53:15;102154.77;;;19.33;53.67
48095;BME280;33874;52.070;-0.516;2023-06-04T07:55:43;102155.39;;;18.76;53.39
48095;BME280;33874;52.070;-0.516;2023-06-04T07:58:11;102153.02;;;18.27;53.97
48095;BME280;33874;52.070;-0.516;2023-06-04T08:00:39;102150.02;;;17.89;54.49
48095;BME280;33874;52.070;-0.516;2023-06-04T08:03:08;102150.19;;;17.44;54.77
48095;BME280;33874;52.070;-0.516;2023-06-04T08:05:42;102151.72;;;17.08;55.38
48095;BME280;33874;52.070;-0.516;2023-06-04T08:08:13;102155.71;;;16.82;56.06
48095;BME280;33874;52.070;-0.516;2023-06-04T08:10:45;102152.21;;;16.59;56.57
48095;BME280;33874;52.070;-0.516;2023-06-04T08:13:18;102153.52;;;16.48;56.87
48095;BME280;33874;52.070;-0.516;2023-06-04T08:15:50;102148.20;;;16.32;57.00
48095;BME280;33874;52.070;-0.516;2023-06-04T08:18:33;102148.38;;;16.23;57.57
48095;BME280;33874;52.070;-0.516;2023-06-04T08:21:50;102143.20;;;16.22;57.63
48095;BME280;33874;52.070;-0.516;2023-06-04T08:24:18;102144.16;;;16.21;58.00
48095;BME280;33874;52.070;-0.516;2023-06-04T08:26:48;102146.95;;;16.19;57.99
48095;BME280;33874;52.070;-0.516;2023-06-04T08:29:24;102146.63;;;16.21;58.24
48095;BME280;33874;52.070;-0.516;2023-06-04T08:31:56;102153.48;;;16.22;58.21
48095;BME280;33874;52.070;-0.516;2023-06-04T08:34:36;102147.48;;;16.19;58.04
48095;BME280;33874;52.070;-0.516;2023-06-04T08:37:13;102147.34;;;16.23;58.44
48095;BME280;33874;52.070;-0.516;2023-06-04T08:48:32;102148.09;;;16.43;58.33
48095;BME280;33874;52.070;-0.516;2023-06-04T08:51:43;102143.39;;;16.50;58.15
48095;BME280;33874;52.070;-0.516;2023-06-04T08:54:28;102142.90;;;16.59;57.86
48095;BME280;33874;52.070;-0.516;2023-06-04T08:57:01;102140.46;;;16.67;58.06
48095;BME280;33874;52.070;-0.516;2023-06-04T08:59:32;102139.68;;;16.72;57.73
48095;BME280;33874;52.070;-0.516;2023-06-04T09:02:29;102141.94;;;16.74;57.75
48095;BME280;33874;52.070;-0.516;2023-06-04T09:05:05;102144.09;;;16.80;57.72
48095;BME280;33874;52.070;-0.516;2023-06-04T09:08:20;102136.16;;;16.88;57.87
48095;BME280;33874;52.070;-0.516;2023-06-04T09:10:53;102131.74;;;16.95;57.93
48095;BME280;33874;52.070;-0.516;2023-06-04T09:13:39;102140.69;;;16.95;57.49
48095;BME280;33874;52.070;-0.516;2023-06-04T09:16:24;102141.40;;;17.03;58.10
48095;BME280;33874;52.070;-0.516;2023-06-04T09:19:05;102139.42;;;17.16;57.81
48095;BME280;33874;52.070;-0.516;2023-06-04T09:22:31;102144.09;;;17.26;57.46
48095;BME280;33874;52.070;-0.516;2023-06-04T09:25:05;102143.75;;;17.20;57.00
48095;BME280;33874;52.070;-0.516;2023-06-04T09:28:13;102146.73;;;17.28;57.20
48095;BME280;33874;52.070;-0.516;2023-06-04T09:30:51;102141.80;;;17.37;57.31
48095;BME280;33874;52.070;-0.516;2023-06-04T09:37:54;102146.16;;;17.63;57.00
48095;BME280;33874;52.070;-0.516;2023-06-04T09:40:46;102146.66;;;17.73;57.01
48095;BME280;33874;52.070;-0.516;2023-06-04T09:43:21;102145.08;;;17.81;56.74
48095;BME280;33874;52.070;-0.516;2023-06-04T09:45:55;102142.66;;;17.84;56.61
48095;BME280;33874;52.070;-0.516;2023-06-04T09:51:47;102139.91;;;17.94;56.40
48095;BME280;33874;52.070;-0.516;2023-06-04T09:54:19;102139.13;;;18.00;56.49
48095;BME280;33874;52.070;-0.516;2023-06-04T09:58:01;102142.55;;;18.21;56.51
48095;BME280;33874;52.070;-0.516;2023-06-04T10:04:21;102143.77;;;18.21;55.31
48095;BME280;33874;52.070;-0.516;2023-06-04T10:07:49;102149.03;;;18.35;55.49
48095;BME280;33874;52.070;-0.516;2023-06-04T10:14:03;102140.92;;;18.48;55.01
48095;BME280;33874;52.070;-0.516;2023-06-04T10:17:34;102144.92;;;18.61;54.82
48095;BME280;33874;52.070;-0.516;2023-06-04T10:20:17;102147.83;;;18.67;54.81
48095;BME280;33874;52.070;-0.516;2023-06-04T10:22:50;102146.75;;;18.65;54.58
48095;BME280;33874;52.070;-0.516;2023-06-04T10:25:20;102152.08;;;18.71;54.42
48095;BME280;33874;52.070;-0.516;2023-06-04T10:27:48;102149.04;;;18.77;53.83
48095;BME280;33874;52.070;-0.516;2023-06-04T10:30:19;102147.52;;;18.78;53.79
48095;BME280;33874;52.070;-0.516;2023-06-04T10:32:47;102150.81;;;18.83;54.13
48095;BME280;33874;52.070;-0.516;2023-06-04T10:35:16;102147.20;;;18.92;54.33
48095;BME280;33874;52.070;-0.516;2023-06-04T10:37:43;102146.65;;;19.00;54.01
48095;BME280;33874;52.070;-0.516;2023-06-04T10:40:11;102146.17;;;19.08;53.98
48095;BME280;33874;52.070;-0.516;2023-06-04T10:42:40;102151.40;;;19.20;54.01
48095;BME280;33874;52.070;-0.516;2023-06-04T10:45:09;102155.05;;;19.26;53.45
48095;BME280;33874;52.070;-0.516;2023-06-04T10:47:37;102159.14;;;19.34;52.76
48095;BME280;33874;52.070;-0.516;2023-06-04T10:50:10;102151.46;;;19.35;52.43
48095;BME280;33874;52.070;-0.516;2023-06-04T10:52:55;102154.70;;;19.40;52.53
48095;BME280;33874;52.070;-0.516;2023-06-04T10:55:25;102154.08;;;19.52;52.51
48095;BME280;33874;52.070;-0.516;2023-06-04T10:58:05;102150.17;;;19.62;52.49
48095;BME280;33874;52.070;-0.516;2023-06-04T11:55:22;102122.88;;;20.76;47.86
48095;BME280;33874;52.070;-0.516;2023-06-04T11:57:54;102127.42;;;20.89;48.04
48095;BME280;33874;52.070;-0.516;2023-06-04T12:00:27;102135.58;;;20.98;47.50
48095;BME280;33874;52.070;-0.516;2023-06-04T12:03:00;102137.70;;;21.06;47.42
48095;BME280;33874;52.070;-0.516;2023-06-04T12:05:34;102130.67;;;21.13;47.23
48095;BME280;33874;52.070;-0.516;2023-06-04T12:08:07;102135.42;;;21.12;46.50
48095;BME280;33874;52.070;-0.516;2023-06-04T12:10:48;102129.95;;;21.17;46.81
48095;BME280;33874;52.070;-0.516;2023-06-04T12:29:01;102113.92;;;21.68;46.16
48095;BME280;33874;52.070;-0.516;2023-06-04T12:31:45;102113.48;;;21.76;46.35
48095;BME280;33874;52.070;-0.516;2023-06-04T12:34:17;102108.66;;;21.79;46.15
48095;BME280;33874;52.070;-0.516;2023-06-04T12:36:46;102107.00;;;21.85;46.37
48095;BME280;33874;52.070;-0.516;2023-06-04T12:39:17;102103.23;;;21.89;45.97
48095;BME280;33874;52.070;-0.516;2023-06-04T12:41:51;102104.98;;;21.86;45.12
48095;BME280;33874;52.070;-0.516;2023-06-04T12:44:20;102110.94;;;21.82;45.86
48095;BME280;33874;52.070;-0.516;2023-06-04T12:46:49;102103.63;;;21.84;45.37
48095;BME280;33874;52.070;-0.516;2023-06-04T12:49:18;102108.11;;;21.88;45.90
48095;BME280;33874;52.070;-0.516;2023-06-04T12:51:47;102109.29;;;21.98;45.26
48095;BME280;33874;52.070;-0.516;2023-06-04T12:54:24;102112.93;;;21.93;44.97
48095;BME280;33874;52.070;-0.516;2023-06-04T12:56:53;102110.28;;;21.93;45.35
48095;BME280;33874;52.070;-0.516;2023-06-04T12:59:21;102114.46;;;21.97;45.43
48095;BME280;33874;52.070;-0.516;2023-06-04T13:01:52;102116.08;;;22.06;45.78
48095;BME280;33874;52.070;-0.516;2023-06-04T13:04:23;102121.36;;;22.20;45.73
48095;BME280;33874;52.070;-0.516;2023-06-04T13:06:52;102120.16;;;22.26;45.17
48095;BME280;33874;52.070;-0.516;2023-06-04T13:09:23;102122.08;;;22.25;44.75
48095;BME280;33874;52.070;-0.516;2023-06-04T13:11:52;102120.95;;;22.22;44.59
48095;BME280;33874;52.070;-0.516;2023-06-04T13:14:23;102118.27;;;22.19;45.05
48095;BME280;33874;52.070;-0.516;2023-06-04T13:17:17;102125.10;;;22.25;44.72
48095;BME280;33874;52.070;-0.516;2023-06-04T13:19:50;102119.79;;;22.28;44.78
48095;BME280;33874;52.070;-0.516;2023-06-04T13:22:17;102116.37;;;22.34;45.08
48095;BME280;33874;52.070;-0.516;2023-06-04T13:24:45;102116.00;;;22.42;44.77
48095;BME280;33874;52.070;-0.516;2023-06-04T13:27:27;102117.00;;;22.44;44.59
48095;BME280;33874;52.070;-0.516;2023-06-04T13:30:00;102107.91;;;22.50;44.77
48095;BME280;33874;52.070;-0.516;2023-06-04T13:32:37;102110.94;;;22.60;44.35
48095;BME280;33874;52.070;-0.516;2023-06-04T13:35:18;102108.54;;;22.58;43.94
48095;BME280;33874;52.070;-0.516;2023-06-04T13:37:46;102103.39;;;22.57;44.12
48095;BME280;33874;52.070;-0.516;2023-06-04T13:40:15;102100.85;;;22.68;44.60
48095;BME280;33874;52.070;-0.516;2023-06-04T13:42:47;102108.69;;;22.90;44.80
48095;BME280;33874;52.070;-0.516;2023-06-04T13:45:16;102114.02;;;22.92;43.98
48095;BME280;33874;52.070;-0.516;2023-06-04T13:47:48;102108.11;;;22.84;43.96
48095;BME280;33874;52.070;-0.516;2023-06-04T13:50:23;102104.83;;;22.88;44.33
48095;BME280;33874;52.070;-0.516;2023-06-04T13:52:57;102109.24;;;23.07;44.64
48095;BME280;33874;52.070;-0.516;2023-06-04T13:55:29;102108.73;;;23.18;44.25
48095;BME280;33874;52.070;-0.516;2023-06-04T13:57:57;102108.51;;;23.16;43.86
48095;BME280;33874;52.070;-0.516;2023-06-04T14:00:26;102103.45;;;23.02;43.65
48095;BME280;33874;52.070;-0.516;2023-06-04T14:03:53;102102.80;;;23.02;43.74
48095;BME280;33874;52.070;-0.516;2023-06-04T14:06:03;102094.73;;;23.09;44.32
48095;BME280;33874;52.070;-0.516;2023-06-04T14:08:33;102096.31;;;23.15;43.85
48095;BME280;33874;52.070;-0.516;2023-06-04T14:11:01;102091.73;;;23.14;43.56
48095;BME280;33874;52.070;-0.516;2023-06-04T14:13:29;102098.65;;;23.09;43.20
48095;BME280;33874;52.070;-0.516;2023-06-04T14:15:59;102095.52;;;22.98;42.70
48095;BME280;33874;52.070;-0.516;2023-06-04T14:18:27;102086.30;;;22.82;43.03
48095;BME280;33874;52.070;-0.516;2023-06-04T14:20:55;102084.01;;;22.79;43.72
48095;BME280;33874;52.070;-0.516;2023-06-04T14:23:23;102084.00;;;22.94;43.88
48095;BME280;33874;52.070;-0.516;2023-06-04T14:25:51;102083.70;;;22.99;44.04
48095;BME280;33874;52.070;-0.516;2023-06-04T14:28:20;102076.88;;;23.06;44.04
48095;BME280;33874;52.070;-0.516;2023-06-04T14:30:48;102074.02;;;23.13;43.81
48095;BME280;33874;52.070;-0.516;2023-06-04T14:33:16;102078.92;;;23.16;43.65
48095;BME280;33874;52.070;-0.516;2023-06-04T14:35:44;102078.63;;;23.22;43.70
48095;BME280;33874;52.070;-0.516;2023-06-04T14:38:16;102076.06;;;23.31;43.75
48095;BME280;33874;52.070;-0.516;2023-06-04T14:40:44;102074.71;;;23.38;43.86
48095;BME280;33874;52.070;-0.516;2023-06-04T14:43:13;102074.27;;;23.46;43.44
48095;BME280;33874;52.070;-0.516;2023-06-04T14:45:41;102071.58;;;23.36;43.03
48095;BME280;33874;52.070;-0.516;2023-06-04T14:48:09;102069.90;;;23.35;43.29
48095;BME280;33874;52.070;-0.516;2023-06-04T14:50:43;102073.22;;;23.30;43.19
48095;BME280;33874;52.070;-0.516;2023-06-04T14:53:11;102077.30;;;23.24;42.92
48095;BME280;33874;52.070;-0.516;2023-06-04T14:55:41;102074.33;;;23.16;43.20
48095;BME280;33874;52.070;-0.516;2023-06-04T14:58:10;102072.41;;;23.15;42.87
48095;BME280;33874;52.070;-0.516;2023-06-04T15:00:41;102071.81;;;23.10;43.17
48095;BME280;33874;52.070;-0.516;2023-06-04T15:03:09;102075.02;;;23.18;43.60
48095;BME280;33874;52.070;-0.516;2023-06-04T15:05:38;102072.27;;;23.22;43.24
48095;BME280;33874;52.070;-0.516;2023-06-04T15:08:06;102070.08;;;23.20;43.27
48095;BME280;33874;52.070;-0.516;2023-06-04T15:10:35;102062.27;;;23.25;43.78
48095;BME280;33874;52.070;-0.516;2023-06-04T15:13:04;102062.23;;;23.29;42.96
48095;BME280;33874;52.070;-0.516;2023-06-04T15:15:38;102057.40;;;23.24;42.78
48095;BME280;33874;52.070;-0.516;2023-06-04T15:18:06;102055.77;;;23.29;43.11
48095;BME280;33874;52.070;-0.516;2023-06-04T15:20:35;102053.51;;;23.37;43.11
48095;BME280;33874;52.070;-0.516;2023-06-04T15:23:12;102056.48;;;23.48;43.41
48095;BME280;33874;52.070;-0.516;2023-06-04T15:25:40;102058.17;;;23.58;43.26
48095;BME280;33874;52.070;-0.516;2023-06-04T15:28:11;102060.45;;;23.58;42.74
48095;BME280;33874;52.070;-0.516;2023-06-04T15:30:40;102052.48;;;23.56;42.96
48095;BME280;33874;52.070;-0.516;2023-06-04T15:33:10;102051.98;;;23.65;43.04
48095;BME280;33874;52.070;-0.516;2023-06-04T15:35:47;102051.47;;;23.71;43.01
48095;BME280;33874;52.070;-0.516;2023-06-04T15:38:15;102054.27;;;23.76;42.93
48095;BME280;33874;52.070;-0.516;2023-06-04T15:40:43;102053.97;;;23.72;42.58
48095;BME280;33874;52.070;-0.516;2023-06-04T15:43:20;102051.46;;;23.63;42.53
48095;BME280;33874;52.070;-0.516;2023-06-04T15:45:49;102057.65;;;23.57;42.52
48095;BME280;33874;52.070;-0.516;2023-06-04T15:48:17;102056.24;;;23.43;42.31
48095;BME280;33874;52.070;-0.516;2023-06-04T15:50:54;102057.19;;;23.35;42.61
48095;BME280;33874;52.070;-0.516;2023-06-04T15:53:27;102058.45;;;23.26;42.66
48095;BME280;33874;52.070;-0.516;2023-06-04T15:55:56;102062.74;;;23.24;42.92
48095;BME280;33874;52.070;-0.516;2023-06-04T15:58:30;102060.12;;;23.21;43.16